sensor_id;sensor_type;location;lat;lon;timestamp;P1;durP1;ratioP1;P2;durP2;ratioP2
78668;SDS011;67984;45.118;20.724;2023-03-01T00:01:55;58.20;;;25.40;;
78668;SDS011;67984;45.118;20.724;2023-03-01T00:11:55;49.23;;;22.13;;
78668;SDS011;67984;45.118;20.724;2023-03-01T00:21:56;54.90;;;24.80;;
78668;SDS011;67984;45.118;20.724;2023-03-01T00:31:57;55.97;;;22.73;;
78668;SDS011;67984;45.118;20.724;2023-03-01T00:41:57;61.40;;;25.17;;
78668;SDS011;67984;45.118;20.724;2023-03-01T00:51:58;57.80;;;24.17;;
78668;SDS011;67984;45.118;20.724;2023-03-01T01:01:59;65.23;;;28.03;;
78668;SDS011;67984;45.118;20.724;2023-03-01T01:11:59;61.17;;;24.90;;
78668;SDS011;67984;45.118;20.724;2023-03-01T01:22:00;51.90;;;24.20;;
78668;SDS011;67984;45.118;20.724;2023-03-01T01:32:01;54.30;;;26.63;;
78668;SDS011;67984;45.118;20.724;2023-03-01T01:42:02;54.13;;;24.43;;
78668;SDS011;67984;45.118;20.724;2023-03-01T02:02:11;54.67;;;23.65;;
78668;SDS011;67984;45.118;20.724;2023-03-01T02:12:13;54.83;;;22.73;;
78668;SDS011;67984;45.118;20.724;2023-03-01T02:32:30;55.45;;;26.05;;
78668;SDS011;67984;45.118;20.724;2023-03-01T02:42:32;61.17;;;24.35;;
78668;SDS011;67984;45.118;20.724;2023-03-01T02:52:45;48.80;;;23.35;;
78668;SDS011;67984;45.118;20.724;2023-03-01T03:02:54;59.17;;;25.42;;
78668;SDS011;67984;45.118;20.724;2023-03-01T03:12:59;57.20;;;24.77;;
78668;SDS011;67984;45.118;20.724;2023-03-01T03:23:04;61.17;;;26.50;;
78668;SDS011;67984;45.118;20.724;2023-03-01T03:33:05;54.07;;;24.90;;
78668;SDS011;67984;45.118;20.724;2023-03-01T03:43:11;51.20;;;24.75;;
78668;SDS011;67984;45.118;20.724;2023-03-01T03:53:22;56.45;;;25.63;;
78668;SDS011;67984;45.118;20.724;2023-03-01T04:03:25;60.60;;;26.73;;
78668;SDS011;67984;45.118;20.724;2023-03-01T04:13:27;55.03;;;25.40;;
78668;SDS011;67984;45.118;20.724;2023-03-01T04:23:27;56.80;;;26.03;;
78668;SDS011;67984;45.118;20.724;2023-03-01T04:33:28;70.80;;;29.90;;
78668;SDS011;67984;45.118;20.724;2023-03-01T04:43:29;56.67;;;25.42;;
78668;SDS011;67984;45.118;20.724;2023-03-01T04:53:30;57.13;;;27.38;;
78668;SDS011;67984;45.118;20.724;2023-03-01T05:03:30;49.30;;;24.50;;
78668;SDS011;67984;45.118;20.724;2023-03-01T05:13:31;53.42;;;25.15;;
78668;SDS011;67984;45.118;20.724;2023-03-01T05:23:32;73.80;;;31.27;;
78668;SDS011;67984;45.118;20.724;2023-03-01T05:33:39;113.50;;;43.58;;
78668;SDS011;67984;45.118;20.724;2023-03-01T05:43:40;80.43;;;38.90;;
78668;SDS011;67984;45.118;20.724;2023-03-01T05:53:43;72.30;;;32.70;;
78668;SDS011;67984;45.118;20.724;2023-03-01T06:03:44;85.13;;;36.53;;
78668;SDS011;67984;45.118;20.724;2023-03-01T06:13:45;133.88;;;57.65;;
78668;SDS011;67984;45.118;20.724;2023-03-01T06:23:46;185.55;;;82.22;;
78668;SDS011;67984;45.118;20.724;2023-03-01T06:33:47;127.00;;;56.67;;
78668;SDS011;67984;45.118;20.724;2023-03-01T06:43:47;138.20;;;59.37;;
78668;SDS011;67984;45.118;20.724;2023-03-01T06:53:48;62.92;;;27.73;;
78668;SDS011;67984;45.118;20.724;2023-03-01T07:03:51;159.13;;;67.13;;
78668;SDS011;67984;45.118;20.724;2023-03-01T07:13:52;96.32;;;44.10;;
78668;SDS011;67984;45.118;20.724;2023-03-01T07:33:54;104.57;;;43.73;;
78668;SDS011;67984;45.118;20.724;2023-03-01T07:43:55;64.38;;;27.10;;
78668;SDS011;67984;45.118;20.724;2023-03-01T08:03:56;68.05;;;30.13;;
78668;SDS011;67984;45.118;20.724;2023-03-01T08:13:57;75.93;;;34.47;;
78668;SDS011;67984;45.118;20.724;2023-03-01T08:23:57;93.17;;;39.10;;
78668;SDS011;67984;45.118;20.724;2023-03-01T08:33:59;61.07;;;28.27;;
78668;SDS011;67984;45.118;20.724;2023-03-01T08:44:02;55.58;;;26.65;;
78668;SDS011;67984;45.118;20.724;2023-03-01T08:54:07;51.88;;;27.58;;
78668;SDS011;67984;45.118;20.724;2023-03-01T09:04:12;49.60;;;25.58;;
78668;SDS011;67984;45.118;20.724;2023-03-01T09:14:14;62.95;;;31.00;;
78668;SDS011;67984;45.118;20.724;2023-03-01T09:24:15;68.80;;;34.45;;
78668;SDS011;67984;45.118;20.724;2023-03-01T09:34:16;59.37;;;26.97;;
78668;SDS011;67984;45.118;20.724;2023-03-01T09:54:30;39.67;;;19.88;;
78668;SDS011;67984;45.118;20.724;2023-03-01T10:04:51;57.10;;;28.13;;
78668;SDS011;67984;45.118;20.724;2023-03-01T10:25:01;28.63;;;14.43;;
78668;SDS011;67984;45.118;20.724;2023-03-01T10:45:29;22.77;;;11.38;;
78668;SDS011;67984;45.118;20.724;2023-03-01T10:55:39;19.05;;;10.15;;
78668;SDS011;67984;45.118;20.724;2023-03-01T11:06:00;16.23;;;9.57;;
78668;SDS011;67984;45.118;20.724;2023-03-01T11:16:05;14.35;;;6.53;;
78668;SDS011;67984;45.118;20.724;2023-03-01T11:26:10;16.33;;;8.70;;
78668;SDS011;67984;45.118;20.724;2023-03-01T11:57:10;15.38;;;8.45;;
78668;SDS011;67984;45.118;20.724;2023-03-01T12:38:32;11.75;;;6.88;;
78668;SDS011;67984;45.118;20.724;2023-03-01T12:59:34;17.90;;;8.35;;
78668;SDS011;67984;45.118;20.724;2023-03-01T13:19:55;46.45;;;16.80;;
78668;SDS011;67984;45.118;20.724;2023-03-01T13:29:59;68.10;;;23.75;;
78668;SDS011;67984;45.118;20.724;2023-03-01T13:40:07;75.40;;;25.88;;
78668;SDS011;67984;45.118;20.724;2023-03-01T13:50:25;72.38;;;27.15;;
78668;SDS011;67984;45.118;20.724;2023-03-01T14:00:38;34.50;;;14.75;;
78668;SDS011;67984;45.118;20.724;2023-03-01T14:10:44;40.95;;;17.27;;
78668;SDS011;67984;45.118;20.724;2023-03-01T14:20:49;16.92;;;8.85;;
78668;SDS011;67984;45.118;20.724;2023-03-01T14:30:55;40.72;;;17.85;;
78668;SDS011;67984;45.118;20.724;2023-03-01T14:40:59;17.25;;;8.25;;
78668;SDS011;67984;45.118;20.724;2023-03-01T14:51:04;20.02;;;9.82;;
78668;SDS011;67984;45.118;20.724;2023-03-01T15:01:05;13.48;;;6.25;;
78668;SDS011;67984;45.118;20.724;2023-03-01T15:11:20;14.23;;;6.78;;
78668;SDS011;67984;45.118;20.724;2023-03-01T15:21:29;39.50;;;14.95;;
78668;SDS011;67984;45.118;20.724;2023-03-01T15:31:57;19.27;;;8.43;;
78668;SDS011;67984;45.118;20.724;2023-03-01T15:52:22;21.30;;;12.32;;
78668;SDS011;67984;45.118;20.724;2023-03-01T16:02:37;64.88;;;31.77;;
78668;SDS011;67984;45.118;20.724;2023-03-01T16:12:38;26.40;;;12.32;;
78668;SDS011;67984;45.118;20.724;2023-03-01T16:22:39;43.80;;;18.70;;
78668;SDS011;67984;45.118;20.724;2023-03-01T16:32:40;39.38;;;16.92;;
78668;SDS011;67984;45.118;20.724;2023-03-01T16:43:01;71.18;;;26.67;;
78668;SDS011;67984;45.118;20.724;2023-03-01T16:53:02;37.38;;;15.20;;
78668;SDS011;67984;45.118;20.724;2023-03-01T17:03:03;68.78;;;24.27;;
78668;SDS011;67984;45.118;20.724;2023-03-01T17:13:04;47.47;;;17.80;;
78668;SDS011;67984;45.118;20.724;2023-03-01T17:23:04;31.07;;;13.17;;
78668;SDS011;67984;45.118;20.724;2023-03-01T17:33:05;47.13;;;24.30;;
78668;SDS011;67984;45.118;20.724;2023-03-01T17:43:06;51.63;;;20.67;;
78668;SDS011;67984;45.118;20.724;2023-03-01T17:53:08;41.28;;;18.77;;
78668;SDS011;67984;45.118;20.724;2023-03-01T18:03:09;40.50;;;19.52;;
78668;SDS011;67984;45.118;20.724;2023-03-01T18:13:10;37.70;;;19.33;;
78668;SDS011;67984;45.118;20.724;2023-03-01T18:23:14;39.97;;;16.05;;
78668;SDS011;67984;45.118;20.724;2023-03-01T18:33:15;53.88;;;20.75;;
78668;SDS011;67984;45.118;20.724;2023-03-01T18:43:15;59.37;;;23.47;;
78668;SDS011;67984;45.118;20.724;2023-03-01T18:53:16;69.87;;;28.03;;
78668;SDS011;67984;45.118;20.724;2023-03-01T19:03:17;71.03;;;27.13;;
78668;SDS011;67984;45.118;20.724;2023-03-01T19:13:18;72.23;;;27.50;;
78668;SDS011;67984;45.118;20.724;2023-03-01T19:23:18;88.87;;;32.77;;
78668;SDS011;67984;45.118;20.724;2023-03-01T19:33:19;81.40;;;32.40;;
78668;SDS011;67984;45.118;20.724;2023-03-01T19:43:20;82.83;;;33.63;;
78668;SDS011;67984;45.118;20.724;2023-03-01T19:53:21;67.03;;;30.10;;
78668;SDS011;67984;45.118;20.724;2023-03-01T20:03:22;45.30;;;21.03;;
78668;SDS011;67984;45.118;20.724;2023-03-01T20:13:22;39.90;;;17.42;;
78668;SDS011;67984;45.118;20.724;2023-03-01T20:23:23;33.53;;;15.50;;
78668;SDS011;67984;45.118;20.724;2023-03-01T20:33:24;47.28;;;19.23;;
78668;SDS011;67984;45.118;20.724;2023-03-01T20:43:25;72.37;;;25.37;;
78668;SDS011;67984;45.118;20.724;2023-03-01T20:53:27;38.65;;;16.05;;
78668;SDS011;67984;45.118;20.724;2023-03-01T21:03:28;44.50;;;16.75;;
78668;SDS011;67984;45.118;20.724;2023-03-01T21:13:29;35.58;;;16.95;;
78668;SDS011;67984;45.118;20.724;2023-03-01T21:23:32;41.45;;;16.65;;
78668;SDS011;67984;45.118;20.724;2023-03-01T21:33:37;36.13;;;15.63;;
78668;SDS011;67984;45.118;20.724;2023-03-01T21:43:39;29.30;;;16.55;;
78668;SDS011;67984;45.118;20.724;2023-03-01T21:53:41;30.33;;;14.73;;
78668;SDS011;67984;45.118;20.724;2023-03-01T22:03:43;35.33;;;15.48;;
78668;SDS011;67984;45.118;20.724;2023-03-01T22:13:45;28.10;;;12.18;;
78668;SDS011;67984;45.118;20.724;2023-03-01T22:23:49;32.28;;;13.93;;
78668;SDS011;67984;45.118;20.724;2023-03-01T22:33:51;35.15;;;16.40;;
78668;SDS011;67984;45.118;20.724;2023-03-01T22:43:53;34.00;;;15.60;;
78668;SDS011;67984;45.118;20.724;2023-03-01T22:53:54;37.53;;;15.13;;
78668;SDS011;67984;45.118;20.724;2023-03-01T23:03:55;34.22;;;15.23;;
78668;SDS011;67984;45.118;20.724;2023-03-01T23:13:58;36.60;;;16.48;;
78668;SDS011;67984;45.118;20.724;2023-03-01T23:23:59;33.22;;;14.90;;
78668;SDS011;67984;45.118;20.724;2023-03-01T23:34:00;35.73;;;15.07;;
78668;SDS011;67984;45.118;20.724;2023-03-01T23:44:01;41.97;;;17.08;;
78668;SDS011;67984;45.118;20.724;2023-03-01T23:54:02;38.20;;;13.85;;
